createdAt,value
2019-05-28T00:01:32.995Z,11.60
2019-05-28T00:04:03.819Z,11.70
2019-05-28T00:06:34.684Z,11.70
2019-05-28T00:09:07.280Z,11.70
2019-05-28T00:11:38.166Z,11.70
2019-05-28T00:14:08.942Z,11.60
2019-05-28T00:16:39.703Z,11.60
2019-05-28T00:19:10.437Z,11.60
2019-05-28T00:21:41.263Z,11.60
2019-05-28T00:24:12.019Z,11.60
2019-05-28T00:26:42.816Z,11.60
2019-05-28T00:29:13.522Z,11.60
2019-05-28T00:31:44.298Z,11.60
2019-05-28T00:34:15.095Z,11.60
2019-05-28T00:36:45.885Z,11.60
2019-05-28T00:39:16.607Z,11.70
2019-05-28T00:41:47.416Z,11.60
2019-05-28T00:44:18.160Z,11.60
2019-05-28T00:46:48.978Z,11.60
2019-05-28T00:49:19.734Z,11.60
2019-05-28T00:51:51.602Z,11.50
2019-05-28T00:54:22.408Z,11.50
2019-05-28T00:56:54.725Z,11.50
2019-05-28T00:59:25.850Z,11.50
2019-05-28T01:01:56.646Z,11.50
2019-05-28T01:04:27.393Z,11.50
2019-05-28T01:07:01.291Z,11.50
2019-05-28T01:09:32.087Z,11.50
2019-05-28T01:12:02.847Z,11.50
2019-05-28T01:14:33.614Z,11.50
2019-05-28T01:17:04.416Z,11.50
2019-05-28T01:19:35.143Z,11.50
2019-05-28T01:22:05.841Z,11.50
2019-05-28T01:24:36.606Z,11.50
2019-05-28T01:27:07.392Z,11.50
2019-05-28T01:29:38.084Z,11.50
2019-05-28T01:32:08.855Z,11.50
2019-05-28T01:34:39.611Z,11.50
2019-05-28T01:37:10.438Z,11.50
2019-05-28T01:39:41.155Z,11.40
2019-05-28T01:42:11.912Z,11.40
2019-05-28T01:44:42.711Z,11.40
2019-05-28T01:47:13.537Z,11.30
2019-05-28T01:49:44.282Z,11.30
2019-05-28T01:52:15.047Z,11.40
2019-05-28T01:54:45.914Z,11.40
2019-05-28T01:57:16.692Z,11.30
2019-05-28T01:59:47.447Z,11.30
2019-05-28T02:02:18.249Z,11.30
2019-05-28T02:04:49.001Z,11.30
2019-05-28T02:07:19.817Z,11.40
2019-05-28T02:09:50.552Z,11.40
2019-05-28T02:12:21.340Z,11.50
2019-05-28T02:14:52.158Z,11.50
2019-05-28T02:17:22.903Z,11.50
2019-05-28T02:19:53.690Z,11.40
2019-05-28T02:22:24.485Z,11.30
2019-05-28T02:24:55.211Z,11.30
2019-05-28T02:27:26.016Z,11.30
2019-05-28T02:29:56.785Z,11.40
2019-05-28T02:32:27.542Z,11.40
2019-05-28T02:34:58.328Z,11.40
2019-05-28T02:37:29.194Z,11.40
2019-05-28T02:39:59.921Z,11.50
2019-05-28T02:42:30.727Z,11.50
2019-05-28T02:45:01.454Z,11.50
2019-05-28T02:47:32.261Z,11.40
2019-05-28T02:50:03.116Z,11.40
2019-05-28T02:52:34.534Z,11.40
2019-05-28T02:55:06.280Z,11.40
2019-05-28T02:57:37.506Z,11.50
2019-05-28T03:00:08.703Z,11.50
2019-05-28T03:02:41.350Z,11.50
2019-05-28T03:05:12.291Z,11.50
2019-05-28T03:07:43.663Z,11.50
2019-05-28T03:10:15.065Z,11.50
2019-05-28T03:12:45.858Z,11.50
2019-05-28T03:15:16.753Z,11.50
2019-05-28T03:17:48.601Z,11.50
2019-05-28T03:20:19.487Z,11.50
2019-05-28T03:22:51.173Z,11.60
2019-05-28T03:25:22.830Z,11.60
2019-05-28T03:27:53.596Z,11.60
2019-05-28T03:30:24.324Z,11.60
2019-05-28T03:32:55.396Z,11.60
2019-05-28T03:35:27.327Z,11.60
2019-05-28T03:37:58.722Z,11.60
2019-05-28T03:40:41.904Z,11.60
2019-05-28T03:43:13.150Z,11.60
2019-05-28T03:45:43.888Z,11.50
2019-05-28T03:48:14.635Z,11.50
2019-05-28T03:50:45.468Z,11.50
2019-05-28T03:53:16.185Z,11.50
2019-05-28T03:55:46.951Z,11.60
2019-05-28T03:58:17.739Z,11.50
2019-05-28T04:00:48.487Z,11.60
2019-05-28T04:03:19.221Z,11.60
2019-05-28T04:05:50.071Z,11.50
2019-05-28T04:08:20.802Z,11.50
2019-05-28T04:10:51.591Z,11.50
2019-05-28T04:13:22.347Z,11.50
2019-05-28T04:15:53.153Z,11.50
2019-05-28T04:18:23.893Z,11.50
2019-05-28T04:20:54.708Z,11.50
2019-05-28T04:23:25.443Z,11.40
2019-05-28T04:25:56.231Z,11.40
2019-05-28T04:28:26.986Z,11.40
2019-05-28T04:30:57.763Z,11.40
2019-05-28T04:33:28.548Z,11.30
2019-05-28T04:35:59.367Z,11.30
2019-05-28T04:38:30.122Z,11.30
2019-05-28T04:41:00.948Z,11.30
2019-05-28T04:43:31.685Z,11.30
2019-05-28T04:46:02.502Z,11.20
2019-05-28T04:48:33.291Z,11.20
2019-05-28T04:51:04.455Z,11.20
2019-05-28T04:53:35.191Z,11.20
2019-05-28T04:56:05.982Z,11.20
2019-05-28T04:58:36.693Z,11.10
2019-05-28T05:01:07.391Z,11.10
2019-05-28T05:03:38.137Z,11.10
2019-05-28T05:06:08.948Z,11.20
2019-05-28T05:08:39.652Z,11.20
2019-05-28T05:11:10.467Z,11.20
2019-05-28T05:13:41.213Z,11.20
2019-05-28T05:16:11.983Z,11.20
2019-05-28T05:18:42.711Z,11.10
2019-05-28T05:21:13.483Z,11.10
2019-05-28T05:23:44.249Z,11.10
2019-05-28T05:26:15.026Z,11.10
2019-05-28T05:28:45.792Z,11.10
2019-05-28T05:31:16.640Z,11.20
2019-05-28T05:33:47.395Z,11.20
2019-05-28T05:36:18.218Z,11.20
2019-05-28T05:38:49.018Z,11.20
2019-05-28T05:41:19.784Z,11.20
2019-05-28T05:43:50.624Z,11.20
2019-05-28T05:46:21.338Z,11.30
2019-05-28T05:48:52.123Z,11.30
2019-05-28T05:51:22.851Z,11.30
2019-05-28T05:53:53.669Z,11.40
2019-05-28T05:56:24.400Z,11.40
2019-05-28T05:58:55.199Z,11.50
2019-05-28T06:01:25.978Z,11.50
2019-05-28T06:03:56.743Z,11.50
2019-05-28T06:06:27.510Z,11.50
2019-05-28T06:08:59.959Z,11.60
2019-05-28T06:11:30.822Z,11.50
2019-05-28T06:14:01.631Z,11.60
2019-05-28T06:16:32.402Z,11.60
2019-05-28T06:19:03.196Z,11.70
2019-05-28T06:21:33.918Z,11.80
2019-05-28T06:24:04.826Z,11.80
2019-05-28T06:26:35.572Z,11.90
2019-05-28T06:29:06.376Z,12.00
2019-05-28T06:31:37.117Z,12.10
2019-05-28T06:34:07.911Z,12.20
2019-05-28T06:36:38.721Z,12.30
2019-05-28T06:39:09.494Z,12.30
2019-05-28T06:41:40.249Z,12.40
2019-05-28T06:44:10.989Z,12.50
2019-05-28T06:46:41.744Z,12.50
2019-05-28T06:49:12.560Z,12.60
2019-05-28T06:51:43.281Z,12.70
2019-05-28T06:54:14.073Z,12.80
2019-05-28T06:56:44.879Z,12.80
2019-05-28T06:59:15.636Z,12.90
2019-05-28T07:01:46.373Z,13.00
2019-05-28T07:04:31.841Z,13.10
2019-05-28T07:06:49.545Z,13.10
2019-05-28T07:09:20.332Z,13.20
2019-05-28T07:11:51.059Z,13.10
2019-05-28T07:14:21.850Z,13.00
2019-05-28T07:16:53.860Z,13.00
2019-05-28T07:19:25.291Z,12.90
2019-05-28T07:21:56.388Z,13.00
2019-05-28T07:24:27.172Z,12.90
2019-05-28T07:26:57.969Z,12.80
2019-05-28T07:29:28.754Z,12.80
2019-05-28T07:31:59.531Z,12.80
2019-05-28T07:34:31.567Z,12.80
2019-05-28T07:37:02.444Z,12.90
2019-05-28T07:39:33.241Z,13.00
2019-05-28T07:42:03.988Z,13.00
2019-05-28T07:44:34.816Z,12.90
2019-05-28T07:47:05.568Z,13.00
2019-05-28T07:49:36.359Z,13.00
2019-05-28T07:52:07.103Z,13.00
2019-05-28T07:54:39.470Z,13.10
2019-05-28T07:57:10.300Z,13.10
2019-05-28T07:59:41.114Z,13.00
2019-05-28T08:02:11.888Z,13.10
2019-05-28T08:04:47.266Z,13.10
2019-05-28T08:07:15.012Z,13.20
2019-05-28T08:09:45.806Z,13.40
2019-05-28T08:12:16.562Z,13.50
2019-05-28T08:14:47.339Z,13.60
2019-05-28T08:17:18.136Z,13.70
2019-05-28T08:19:48.842Z,13.80
2019-05-28T08:22:19.619Z,13.80
2019-05-28T08:24:50.359Z,13.80
2019-05-28T08:27:21.244Z,13.70
2019-05-28T08:29:52.048Z,13.60
2019-05-28T08:32:22.814Z,13.70
2019-05-28T08:35:05.009Z,13.70
2019-05-28T08:37:26.017Z,14.00
2019-05-28T08:39:56.818Z,14.20
2019-05-28T08:42:27.580Z,14.20
2019-05-28T08:44:58.337Z,14.20
2019-05-28T08:47:29.137Z,14.10
2019-05-28T08:49:59.849Z,14.00
2019-05-28T08:52:30.627Z,14.00
2019-05-28T08:55:01.390Z,14.10
2019-05-28T08:57:32.212Z,14.20
2019-05-28T09:00:02.975Z,14.30
2019-05-28T09:02:33.783Z,14.40
2019-05-28T09:05:24.451Z,14.30
2019-05-28T09:07:36.997Z,14.20
2019-05-28T09:10:08.091Z,14.20
2019-05-28T09:12:38.821Z,14.20
2019-05-28T09:15:09.565Z,14.30
2019-05-28T09:17:40.363Z,14.40
2019-05-28T09:20:11.087Z,14.70
2019-05-28T09:22:41.887Z,15.00
2019-05-28T09:25:12.609Z,15.00
2019-05-28T09:27:43.389Z,14.80
2019-05-28T09:30:14.704Z,14.70
2019-05-28T09:32:45.533Z,14.60
2019-05-28T09:35:16.752Z,14.50
2019-05-28T09:37:47.627Z,14.30
2019-05-28T09:40:19.110Z,14.30
2019-05-28T09:42:50.015Z,14.40
2019-05-28T09:45:22.798Z,14.40
2019-05-28T09:47:55.335Z,14.30
2019-05-28T09:50:31.007Z,14.50
2019-05-28T09:52:58.651Z,14.90
2019-05-28T09:55:34.597Z,15.30
2019-05-28T09:58:10.970Z,15.80
2019-05-28T10:00:57.356Z,16.20
2019-05-28T10:03:19.255Z,16.40
2019-05-28T10:06:01.914Z,16.30
2019-05-28T10:08:25.899Z,15.80
2019-05-28T10:10:57.180Z,15.40
2019-05-28T10:13:38.799Z,15.20
2019-05-28T10:16:01.049Z,15.10
2019-05-28T10:18:31.914Z,15.20
2019-05-28T10:21:17.004Z,15.20
2019-05-28T10:23:35.176Z,15.00
2019-05-28T10:26:06.082Z,15.00
2019-05-28T10:28:36.849Z,15.30
2019-05-28T10:31:07.505Z,15.70
2019-05-28T10:33:38.262Z,16.00
2019-05-28T10:36:09.070Z,16.30
2019-05-28T10:38:39.893Z,16.70
2019-05-28T10:41:10.644Z,16.90
2019-05-28T10:43:41.436Z,17.10
2019-05-28T10:46:12.381Z,17.10
2019-05-28T10:48:43.411Z,16.70
2019-05-28T10:51:14.220Z,16.20
2019-05-28T10:53:45.062Z,15.90
2019-05-28T10:56:15.818Z,15.80
2019-05-28T10:58:46.599Z,16.00
2019-05-28T11:01:17.429Z,16.30
2019-05-28T11:03:48.510Z,16.30
2019-05-28T11:06:19.265Z,16.30
2019-05-28T11:08:50.022Z,16.50
2019-05-28T11:11:20.827Z,16.80
2019-05-28T11:13:53.341Z,17.00
2019-05-28T11:16:24.160Z,17.40
2019-05-28T11:18:54.917Z,17.30
2019-05-28T11:21:25.714Z,17.40
2019-05-28T11:23:56.461Z,17.30
2019-05-28T11:26:27.218Z,17.50
2019-05-28T11:28:58.034Z,17.60
2019-05-28T11:31:28.832Z,17.70
2019-05-28T11:33:59.677Z,17.90
2019-05-28T11:36:30.454Z,17.90
2019-05-28T11:39:01.250Z,17.90
2019-05-28T11:41:41.959Z,18.00
2019-05-28T11:44:04.713Z,18.40
2019-05-28T11:46:35.550Z,18.70
2019-05-28T11:49:06.299Z,18.40
2019-05-28T11:51:37.081Z,18.40
2019-05-28T11:54:07.878Z,18.40
2019-05-28T11:56:38.643Z,18.50
2019-05-28T11:59:09.418Z,18.80
2019-05-28T12:01:40.207Z,19.30
2019-05-28T12:04:10.973Z,19.60
2019-05-28T12:06:41.819Z,19.20
2019-05-28T12:09:12.575Z,18.40
2019-05-28T12:11:43.374Z,18.20
2019-05-28T12:14:14.178Z,18.10
2019-05-28T12:16:44.985Z,17.70
2019-05-28T12:19:15.796Z,17.50
2019-05-28T12:21:46.941Z,17.30
2019-05-28T12:24:17.801Z,17.00
2019-05-28T12:26:48.578Z,17.10
2019-05-28T12:29:19.288Z,17.50
2019-05-28T12:31:50.090Z,17.60
2019-05-28T12:34:20.810Z,17.60
2019-05-28T12:36:51.701Z,18.00
2019-05-28T12:39:22.462Z,18.30
2019-05-28T12:42:02.156Z,18.30
2019-05-28T12:44:41.171Z,17.80
2019-05-28T12:46:58.173Z,17.40
2019-05-28T12:49:28.965Z,17.00
2019-05-28T12:51:59.715Z,16.80
2019-05-28T12:54:30.493Z,16.60
2019-05-28T12:57:01.228Z,16.30
2019-05-28T12:59:31.983Z,16.20
2019-05-28T13:02:02.742Z,15.90
2019-05-28T13:04:33.516Z,15.30
2019-05-28T13:07:04.341Z,14.70
2019-05-28T13:09:35.110Z,14.20
2019-05-28T13:12:05.963Z,14.00
2019-05-28T13:14:36.692Z,14.40
2019-05-28T13:17:07.490Z,15.00
2019-05-28T13:19:38.346Z,14.90
2019-05-28T13:22:09.172Z,14.70
2019-05-28T13:24:39.898Z,14.60
2019-05-28T13:27:18.301Z,14.50
2019-05-28T13:29:43.380Z,14.80
2019-05-28T13:32:14.182Z,15.20
2019-05-28T13:34:44.961Z,15.60
2019-05-28T13:37:15.750Z,16.50
2019-05-28T13:39:46.570Z,16.50
2019-05-28T13:42:17.415Z,16.20
2019-05-28T13:44:49.196Z,16.30
2019-05-28T13:47:33.007Z,16.20
2019-05-28T13:49:52.593Z,15.70
2019-05-28T13:52:23.509Z,15.60
2019-05-28T13:54:54.226Z,15.90
2019-05-28T13:57:25.114Z,16.40
2019-05-28T13:59:58.518Z,16.90
2019-05-28T14:02:28.346Z,17.20
2019-05-28T14:04:59.102Z,17.20
2019-05-28T14:07:29.838Z,17.30
2019-05-28T14:10:00.565Z,17.20
2019-05-28T14:12:31.312Z,17.40
2019-05-28T14:15:02.244Z,17.60
2019-05-28T14:17:32.974Z,17.90
2019-05-28T14:20:05.254Z,18.00
2019-05-28T14:22:36.096Z,18.20
2019-05-28T14:25:06.893Z,18.60
2019-05-28T14:27:37.609Z,19.00
2019-05-28T14:30:10.999Z,19.30
2019-05-28T14:32:41.749Z,19.30
2019-05-28T14:35:12.559Z,19.00
2019-05-28T14:37:43.468Z,18.50
2019-05-28T14:40:17.862Z,18.20
2019-05-28T14:42:50.240Z,17.70
2019-05-28T14:45:21.429Z,17.30
2019-05-28T14:47:52.225Z,16.80
2019-05-28T14:50:23.721Z,16.30
2019-05-28T14:52:55.911Z,16.50
2019-05-28T14:55:27.817Z,17.00
2019-05-28T14:57:58.712Z,17.70
2019-05-28T15:00:29.640Z,18.30
2019-05-28T15:03:00.936Z,18.70
2019-05-28T15:05:31.923Z,18.30
2019-05-28T15:08:02.989Z,17.90
2019-05-28T15:10:33.874Z,17.50
2019-05-28T15:13:04.921Z,17.20
2019-05-28T15:15:36.681Z,16.90
2019-05-28T15:18:07.754Z,16.80
2019-05-28T15:20:38.672Z,16.80
2019-05-28T15:23:09.435Z,16.70
2019-05-28T15:25:40.223Z,16.60
2019-05-28T15:28:10.966Z,16.50
2019-05-28T15:30:42.727Z,16.70
2019-05-28T15:33:13.622Z,17.00
2019-05-28T15:35:44.461Z,17.20
2019-05-28T15:38:15.256Z,17.30
2019-05-28T15:40:46.135Z,17.10
2019-05-28T15:43:16.907Z,16.80
2019-05-28T15:45:47.686Z,16.60
2019-05-28T15:48:18.472Z,16.70
2019-05-28T15:50:49.314Z,16.70
2019-05-28T15:53:20.065Z,16.60
2019-05-28T15:55:50.830Z,16.40
2019-05-28T15:58:21.647Z,16.20
2019-05-28T16:00:52.433Z,15.90
2019-05-28T16:03:23.231Z,15.60
2019-05-28T16:05:54.035Z,15.30
2019-05-28T16:08:24.943Z,15.00
2019-05-28T16:10:55.680Z,14.90
2019-05-28T16:13:26.489Z,15.10
2019-05-28T16:15:57.236Z,15.30
2019-05-28T16:18:28.014Z,15.30
2019-05-28T16:20:58.795Z,15.00
2019-05-28T16:23:29.591Z,14.80
2019-05-28T16:26:00.319Z,14.70
2019-05-28T16:28:32.256Z,14.50
2019-05-28T16:31:12.545Z,14.40
2019-05-28T16:33:35.419Z,14.30
2019-05-28T16:36:06.208Z,14.40
2019-05-28T16:38:37.000Z,14.50
2019-05-28T16:41:07.776Z,14.70
2019-05-28T16:43:38.595Z,14.80
2019-05-28T16:46:09.500Z,14.90
2019-05-28T16:48:40.277Z,14.80
2019-05-28T16:51:11.094Z,14.70
2019-05-28T16:53:41.850Z,14.60
2019-05-28T16:56:12.647Z,14.50
2019-05-28T16:58:43.412Z,14.50
2019-05-28T17:01:22.550Z,14.50
2019-05-28T17:03:46.745Z,14.70
2019-05-28T17:06:17.513Z,14.80
2019-05-28T17:08:48.344Z,14.70
2019-05-28T17:11:19.065Z,14.80
2019-05-28T17:13:50.071Z,14.70
2019-05-28T17:16:21.117Z,14.60
2019-05-28T17:18:51.914Z,14.60
2019-05-28T17:21:23.361Z,14.60
2019-05-28T17:23:54.228Z,14.70
2019-05-28T17:26:24.975Z,14.80
2019-05-28T17:28:55.790Z,14.80
2019-05-28T17:31:26.536Z,14.90
2019-05-28T17:33:57.513Z,14.70
2019-05-28T17:36:28.300Z,14.40
2019-05-28T17:38:59.496Z,14.20
2019-05-28T17:41:30.312Z,14.00
2019-05-28T17:44:01.184Z,13.80
2019-05-28T17:46:32.066Z,13.70
2019-05-28T17:49:02.833Z,13.60
2019-05-28T17:51:33.621Z,13.50
2019-05-28T17:54:04.811Z,13.50
2019-05-28T17:56:35.601Z,13.40
2019-05-28T17:59:06.327Z,13.40
2019-05-28T18:01:37.125Z,13.40
2019-05-28T18:04:07.890Z,13.30
2019-05-28T18:06:38.667Z,13.30
2019-05-28T18:09:11.253Z,13.30
2019-05-28T18:11:42.119Z,13.30
2019-05-28T18:14:12.880Z,13.30
2019-05-28T18:16:43.684Z,13.20
2019-05-28T18:19:14.451Z,13.10
2019-05-28T18:21:45.416Z,13.10
2019-05-28T18:24:16.215Z,13.10
2019-05-28T18:26:47.029Z,13.10
2019-05-28T18:29:17.878Z,13.10
2019-05-28T18:31:48.646Z,13.10
2019-05-28T18:34:19.428Z,13.00
2019-05-28T18:36:50.237Z,12.90
2019-05-28T18:39:25.162Z,12.80
2019-05-28T18:41:53.468Z,12.70
2019-05-28T18:44:24.215Z,12.70
2019-05-28T18:46:55.001Z,12.50
2019-05-28T18:49:25.830Z,12.40
2019-05-28T18:51:56.564Z,12.30
2019-05-28T18:54:29.390Z,12.20
2019-05-28T18:56:59.787Z,12.20
2019-05-28T18:59:30.647Z,12.20
2019-05-28T19:02:01.598Z,12.10
2019-05-28T19:04:32.478Z,12.10
2019-05-28T19:07:03.273Z,12.00
2019-05-28T19:09:34.010Z,12.00
2019-05-28T19:12:04.815Z,12.00
2019-05-28T19:14:35.604Z,11.90
2019-05-28T19:17:06.401Z,11.90
2019-05-28T19:19:37.214Z,11.80
2019-05-28T19:22:07.960Z,11.80
2019-05-28T19:24:38.747Z,11.70
2019-05-28T19:27:09.584Z,11.70
2019-05-28T19:29:40.363Z,11.70
2019-05-28T19:32:11.227Z,11.60
2019-05-28T19:34:42.403Z,11.60
2019-05-28T19:37:13.290Z,11.50
2019-05-28T19:39:44.325Z,11.40
2019-05-28T19:42:15.170Z,11.30
2019-05-28T19:44:45.911Z,11.30
2019-05-28T19:47:16.697Z,11.30
2019-05-28T19:49:47.467Z,11.20
2019-05-28T19:52:18.257Z,11.20
2019-05-28T19:54:49.035Z,11.20
2019-05-28T19:57:19.820Z,11.20
2019-05-28T19:59:50.626Z,11.20
2019-05-28T20:02:21.423Z,11.20
2019-05-28T20:04:52.256Z,11.20
2019-05-28T20:07:23.037Z,11.20
2019-05-28T20:09:53.864Z,11.10
2019-05-28T20:12:24.730Z,11.10
2019-05-28T20:14:55.506Z,11.10
2019-05-28T20:17:26.278Z,11.00
2019-05-28T20:19:57.611Z,11.00
2019-05-28T20:22:28.634Z,11.00
2019-05-28T20:24:59.460Z,11.00
2019-05-28T20:27:30.197Z,10.90
2019-05-28T20:30:01.080Z,10.90
2019-05-28T20:32:31.850Z,10.90
2019-05-28T20:35:03.461Z,10.90
2019-05-28T20:37:34.304Z,10.80
2019-05-28T20:40:08.091Z,10.80
2019-05-28T20:42:38.995Z,10.70
2019-05-28T20:45:12.037Z,10.70
2019-05-28T20:47:42.951Z,10.60
2019-05-28T20:50:13.807Z,10.60
2019-05-28T20:52:44.563Z,10.70
2019-05-28T20:55:15.890Z,10.70
2019-05-28T20:57:47.084Z,10.70
2019-05-28T21:00:18.204Z,10.70
2019-05-28T21:02:49.587Z,10.70
2019-05-28T21:05:20.476Z,10.70
2019-05-28T21:07:53.001Z,10.70
2019-05-28T21:10:23.634Z,10.70
2019-05-28T21:12:54.782Z,10.70
2019-05-28T21:15:25.662Z,10.70
2019-05-28T21:17:57.355Z,10.70
2019-05-28T21:20:28.329Z,10.60
2019-05-28T21:23:00.206Z,10.60
2019-05-28T21:25:31.081Z,10.60
2019-05-28T21:28:01.805Z,10.60
2019-05-28T21:30:32.653Z,10.60
2019-05-28T21:33:03.398Z,10.60
2019-05-28T21:35:34.168Z,10.60
2019-05-28T21:38:04.981Z,10.50
2019-05-28T21:40:35.906Z,10.50
2019-05-28T21:43:09.794Z,10.50
2019-05-28T21:45:39.131Z,10.50
2019-05-28T21:48:09.907Z,10.60
2019-05-28T21:50:40.684Z,10.60
2019-05-28T21:53:11.524Z,10.60
2019-05-28T21:55:42.267Z,10.60
2019-05-28T21:58:13.063Z,10.60
2019-05-28T22:00:51.192Z,10.60
2019-05-28T22:03:21.988Z,10.50
2019-05-28T22:05:52.766Z,10.50
2019-05-28T22:08:23.521Z,10.50
2019-05-28T22:10:55.504Z,10.50
2019-05-28T22:13:26.514Z,10.50
2019-05-28T22:15:58.038Z,10.50
2019-05-28T22:18:28.997Z,10.50
2019-05-28T22:21:00.286Z,10.40
2019-05-28T22:23:31.070Z,10.40
2019-05-28T22:26:02.647Z,10.40
2019-05-28T22:28:33.513Z,10.30
2019-05-28T22:31:04.331Z,10.30
2019-05-28T22:33:35.167Z,10.30
2019-05-28T22:36:05.934Z,10.20
2019-05-28T22:38:36.709Z,10.10
2019-05-28T22:41:08.431Z,10.00
2019-05-28T22:43:39.516Z,10.00
2019-05-28T22:46:15.393Z,9.90
2019-05-28T22:48:46.147Z,9.90
2019-05-28T22:51:16.846Z,9.80
2019-05-28T22:53:47.610Z,9.80
2019-05-28T22:56:18.376Z,9.70
2019-05-28T22:58:49.203Z,9.70
2019-05-28T23:01:19.840Z,9.70
2019-05-28T23:03:50.646Z,9.70
2019-05-28T23:06:21.294Z,9.70
2019-05-28T23:08:52.041Z,9.70
2019-05-28T23:11:22.705Z,9.70
2019-05-28T23:13:53.402Z,9.70
2019-05-28T23:16:24.008Z,9.60
2019-05-28T23:18:54.735Z,9.60
2019-05-28T23:21:25.364Z,9.60
2019-05-28T23:23:56.118Z,9.50
2019-05-28T23:26:26.884Z,9.50
2019-05-28T23:28:57.561Z,9.50
2019-05-28T23:31:28.298Z,9.50
2019-05-28T23:33:59.046Z,9.50
2019-05-28T23:36:29.740Z,9.50
2019-05-28T23:39:00.437Z,9.40
2019-05-28T23:41:31.075Z,9.30
2019-05-28T23:44:02.437Z,9.30
2019-05-28T23:46:34.348Z,9.30
2019-05-28T23:49:06.034Z,9.30
2019-05-28T23:51:36.920Z,9.20
2019-05-28T23:54:07.738Z,9.20
2019-05-28T23:56:38.463Z,9.20
2019-05-28T23:59:09.776Z,9.20
